Time;durP1;ratioP1;P1;durP2;ratioP2;P2;SDS_P1;SDS_P2;PMS_P1;PMS_P2;Temp;Humidity;BMP_temperature;BMP_pressure;BME280_temperature;BME280_humidity;BME280_pressure;Samples;Min_cycle;Max_cycle;Signal;HPM_P1;HPM_P2
2023/03/02 00:01:26;;;;;;;17.83;8.43;;;;;;;3.04;59.35;100375.63;4468900;32;20433;-87
2023/03/02 00:03:52;;;;;;;18.25;8.70;;;;;;;2.94;59.34;100368.69;4456045;32;20163;-86
2023/03/02 00:06:18;;;;;;;18.60;7.57;;;;;;;2.85;59.33;100366.94;4486053;31;20430;-87
2023/03/02 00:08:43;;;;;;;18.85;8.57;;;;;;;2.86;59.33;100363.50;4483120;32;20104;-85
2023/03/02 00:11:08;;;;;;;16.15;8.35;;;;;;;2.92;59.34;100370.41;4482645;31;20167;-86
2023/03/02 00:13:35;;;;;;;18.23;7.82;;;;;;;2.86;59.33;100365.22;4491415;31;20147;-87
2023/03/02 00:16:00;;;;;;;17.65;7.90;;;;;;;2.78;59.33;100360.84;4468888;31;20116;-87
2023/03/02 00:18:25;;;;;;;17.83;7.90;;;;;;;2.78;59.32;100365.13;4481840;32;20546;-86
2023/03/02 00:20:51;;;;;;;17.55;8.63;;;;;;;2.97;59.34;100364.44;4468576;32;20111;-87
2023/03/02 00:23:16;;;;;;;16.60;8.57;;;;;;;2.70;59.32;100362.50;4455633;32;20103;-87
2023/03/02 00:25:42;;;;;;;16.48;7.40;;;;;;;2.42;59.30;100357.94;4471169;31;20104;-87
2023/03/02 00:28:07;;;;;;;17.35;7.65;;;;;;;2.55;59.32;100359.75;4474812;32;20092;-87
2023/03/02 00:30:33;;;;;;;16.62;7.68;;;;;;;2.43;59.32;100355.37;4468662;32;20139;-87
2023/03/02 00:32:58;;;;;;;17.67;7.62;;;;;;;2.62;59.32;100348.72;4483060;31;20068;-87
2023/03/02 00:35:25;;;;;;;15.57;7.55;;;;;;;2.61;59.32;100352.13;4455544;32;20153;-87
2023/03/02 00:37:51;;;;;;;17.50;8.32;;;;;;;2.78;59.33;100352.28;4469003;32;20096;-87
2023/03/02 00:40:17;;;;;;;14.85;7.37;;;;;;;2.72;59.33;100340.22;4482562;31;20686;-87
2023/03/02 00:42:42;;;;;;;15.35;7.55;;;;;;;2.39;59.31;100345.91;4483026;31;20072;-86
2023/03/02 00:45:08;;;;;;;16.45;7.32;;;;;;;2.29;59.31;100346.66;4481265;32;20132;-87
2023/03/02 00:47:35;;;;;;;15.68;6.82;;;;;;;2.40;59.31;100347.62;4469228;32;20202;-86
2023/03/02 00:50:00;;;;;;;14.02;6.90;;;;;;;2.31;59.31;100346.66;4483819;32;20396;-87
2023/03/02 00:52:27;;;;;;;15.45;6.93;;;;;;;2.30;59.31;100339.78;4483764;32;20126;-87
2023/03/02 00:54:53;;;;;;;14.63;7.05;;;;;;;2.20;59.30;100345.69;4470768;32;20104;-87
2023/03/02 00:57:21;;;;;;;14.55;6.87;;;;;;;2.35;59.30;100340.69;4483608;32;20152;-85
2023/03/02 00:59:46;;;;;;;12.35;6.80;;;;;;;2.19;59.30;100333.69;4486347;31;20110;-88
2023/03/02 01:02:12;;;;;;;15.60;6.93;;;;;;;2.21;59.29;100332.88;4485577;31;20116;-86
2023/03/02 01:04:39;;;;;;;16.87;6.70;;;;;;;2.14;59.30;100334.50;4492045;31;20136;-86
2023/03/02 01:07:06;;;;;;;11.75;6.30;;;;;;;2.20;59.29;100323.44;4471889;32;20176;-86
2023/03/02 01:09:32;;;;;;;12.07;5.95;;;;;;;2.32;59.30;100320.97;4458533;32;20111;-86
2023/03/02 01:11:57;;;;;;;13.30;6.10;;;;;;;2.29;59.31;100310.69;4471508;32;20357;-87
2023/03/02 01:14:23;;;;;;;11.50;5.15;;;;;;;2.17;59.30;100308.00;4487149;31;20128;-86
2023/03/02 01:16:48;;;;;;;15.15;6.60;;;;;;;2.27;59.30;100314.94;4470313;32;20136;-86
2023/03/02 01:19:14;;;;;;;14.18;6.45;;;;;;;2.22;59.30;100302.91;4471256;32;20111;-86
2023/03/02 01:21:40;;;;;;;13.23;6.03;;;;;;;2.36;59.31;100301.31;4471483;32;20161;-85
2023/03/02 01:24:05;;;;;;;11.98;5.43;;;;;;;2.27;59.30;100296.09;4485969;31;20100;-87
2023/03/02 01:26:31;;;;;;;11.27;6.25;;;;;;;2.34;59.30;100285.91;4485915;31;20126;-88
2023/03/02 01:28:56;;;;;;;17.10;6.53;;;;;;;2.34;59.30;100282.47;4462599;31;20144;-88
2023/03/02 01:31:22;;;;;;;12.13;5.07;;;;;;;2.20;59.29;100279.78;4475509;31;20468;-88
2023/03/02 01:33:47;;;;;;;16.02;5.80;;;;;;;2.14;59.30;100282.28;4485348;32;20105;-87
2023/03/02 01:36:16;;;;;;;13.00;6.00;;;;;;;1.92;59.29;100278.63;4482034;32;20421;-88
2023/03/02 01:38:41;;;;;;;10.82;5.12;;;;;;;1.91;59.28;100266.63;4462565;31;20154;-88
2023/03/02 01:41:07;;;;;;;11.70;5.60;;;;;;;1.99;59.29;100267.56;4490692;31;20514;-87
2023/03/02 01:43:32;;;;;;;14.02;6.30;;;;;;;1.94;59.29;100268.38;4484243;32;20125;-87
2023/03/02 01:46:01;;;;;;;11.77;5.32;;;;;;;2.04;59.29;100258.19;4483920;32;20123;-87
2023/03/02 01:48:41;;;;;;;13.85;6.12;;;;;;;1.93;59.29;100259.81;4485627;31;20131;-87
2023/03/02 01:51:06;;;;;;;14.18;6.50;;;;;;;2.05;59.29;100247.09;4484186;31;20060;-88
2023/03/02 01:53:32;;;;;;;14.07;6.28;;;;;;;1.74;59.28;100261.31;4476767;31;20459;-87
2023/03/02 01:55:58;;;;;;;11.90;5.87;;;;;;;1.67;59.27;100250.97;4490035;31;20097;-87
2023/03/02 01:58:23;;;;;;;11.40;6.23;;;;;;;1.83;59.28;100251.13;4464494;32;198463;-87
2023/03/02 02:00:49;;;;;;;14.45;6.22;;;;;;;1.80;59.28;100255.38;4485393;31;20456;-87
2023/03/02 02:03:20;;;;;;;13.40;5.60;;;;;;;2.01;59.29;100247.91;4486647;31;20502;-88
2023/03/02 02:05:50;;;;;;;15.48;5.82;;;;;;;1.72;59.27;100246.72;4485829;31;20092;-87
2023/03/02 02:08:15;;;;;;;13.10;5.53;;;;;;;1.97;59.28;100241.03;4477814;31;20155;-86
2023/03/02 02:10:41;;;;;;;11.88;5.60;;;;;;;1.99;59.29;100229.06;4473403;31;20128;-87
2023/03/02 02:13:09;;;;;;;11.50;5.62;;;;;;;2.13;59.30;100237.78;4483740;32;20142;-86
2023/03/02 02:15:37;;;;;;;11.18;5.53;;;;;;;2.07;59.30;100236.81;4457846;31;20180;-86
2023/03/02 02:18:02;;;;;;;11.38;5.47;;;;;;;2.03;59.29;100230.81;4483943;32;20095;-86
2023/03/02 02:20:28;;;;;;;13.45;5.68;;;;;;;1.87;59.28;100228.91;4485219;31;20513;-87
2023/03/02 02:23:12;;;;;;;14.82;5.75;;;;;;;1.91;59.28;100228.13;4486443;31;20134;-85
2023/03/02 02:25:52;;;;;;;14.57;6.30;;;;;;;1.82;59.27;100226.31;4487268;31;20161;-87
2023/03/02 02:28:20;;;;;;;11.88;6.03;;;;;;;1.76;59.27;100235.66;4485273;31;20100;-87
2023/03/02 02:30:47;;;;;;;13.38;5.62;;;;;;;1.68;59.27;100233.00;4483938;32;20110;-87
2023/03/02 02:33:14;;;;;;;15.52;6.55;;;;;;;1.59;59.26;100232.88;4481133;31;20112;-87
2023/03/02 02:35:39;;;;;;;17.98;5.93;;;;;;;1.73;59.27;100231.34;4481775;32;20604;-86
2023/03/02 02:38:06;;;;;;;14.45;6.35;;;;;;;1.82;59.27;100230.56;4486630;31;20144;-86
2023/03/02 02:40:57;;;;;;;13.15;5.65;;;;;;;1.70;59.27;100231.31;4486577;31;20099;-87
2023/03/02 02:43:22;;;;;;;12.82;5.70;;;;;;;1.60;59.26;100229.47;4486637;31;20120;-87
2023/03/02 02:45:52;;;;;;;14.05;5.57;;;;;;;1.63;59.26;100231.22;4471043;32;20156;-86
2023/03/02 02:48:19;;;;;;;11.25;5.18;;;;;;;1.51;59.26;100224.25;4473764;32;20080;-87
2023/03/02 02:50:45;;;;;;;13.57;5.22;;;;;;;1.59;59.26;100222.63;4471897;32;20075;-88
2023/03/02 02:53:21;;;;;;;11.77;5.18;;;;;;;1.46;59.25;100226.75;4485753;31;20460;-87
2023/03/02 02:55:47;;;;;;;12.30;5.37;;;;;;;1.70;59.27;100228.75;4474117;32;20097;-87
2023/03/02 02:58:40;;;;;;;13.98;4.82;;;;;;;1.57;59.26;100229.44;4461001;32;20169;-86
2023/03/02 03:01:05;;;;;;;8.57;4.37;;;;;;;1.68;59.27;100227.88;4483783;31;20174;-88
2023/03/02 03:03:36;;;;;;;13.68;5.37;;;;;;;1.50;59.26;100219.97;4483945;32;20881;-87
2023/03/02 03:06:03;;;;;;;13.57;5.22;;;;;;;1.58;59.26;100220.03;4483649;31;20108;-88
2023/03/02 03:08:50;;;;;;;11.98;5.90;;;;;;;1.60;59.26;100216.63;4470887;32;20122;-87
2023/03/02 03:11:23;;;;;;;13.35;6.43;;;;;;;1.51;59.26;100212.28;4475046;31;20113;-87
2023/03/02 03:14:01;;;;;;;11.43;5.55;;;;;;;1.80;59.28;100198.91;4486122;31;20201;-87
2023/03/02 03:16:27;;;;;;;12.20;5.20;;;;;;;1.80;59.28;100206.59;4463459;32;20135;-88
2023/03/02 03:18:53;;;;;;;12.50;5.57;;;;;;;1.73;59.27;100215.94;4483424;31;20159;-87
2023/03/02 03:21:18;;;;;;;12.15;5.50;;;;;;;1.81;59.28;100213.47;4483621;32;20120;-87
2023/03/02 03:23:44;;;;;;;14.32;4.80;;;;;;;1.57;59.26;100215.75;4467830;31;20160;-87
2023/03/02 03:26:09;;;;;;;11.05;5.65;;;;;;;1.63;59.26;100223.50;4483137;32;20478;-86
2023/03/02 03:28:38;;;;;;;11.85;5.22;;;;;;;1.66;59.27;100216.72;4467876;31;20174;-86
2023/03/02 03:31:03;;;;;;;12.07;5.40;;;;;;;1.66;59.27;100226.13;4484956;31;20111;-86
2023/03/02 03:33:29;;;;;;;15.00;5.28;;;;;;;1.78;59.28;100222.00;4484653;31;20462;-86
2023/03/02 03:35:54;;;;;;;11.73;5.25;;;;;;;1.83;59.27;100219.47;4485673;31;20128;-86
2023/03/02 03:38:19;;;;;;;12.75;6.22;;;;;;;1.83;59.27;100219.47;4470013;32;20137;-87
2023/03/02 03:40:45;;;;;;;13.18;5.70;;;;;;;1.82;59.27;100220.31;4470646;32;20388;-85
2023/03/02 03:43:12;;;;;;;11.07;5.62;;;;;;;1.88;59.28;100227.22;4483192;31;20167;-87
2023/03/02 03:45:38;;;;;;;22.45;11.30;;;;;;;1.98;59.29;100222.19;4477019;31;20116;-87
2023/03/02 03:48:03;;;;;;;24.90;12.40;;;;;;;2.03;59.29;100232.50;4488417;31;20369;-87
2023/03/02 03:50:31;;;;;;;17.17;8.15;;;;;;;2.13;59.30;100227.50;4483609;32;20161;-86
2023/03/02 03:52:57;;;;;;;13.32;6.25;;;;;;;2.24;59.30;100237.84;4483694;31;20116;-85
2023/03/02 03:55:22;;;;;;;15.75;7.47;;;;;;;2.10;59.29;100237.72;4483745;32;20100;-86
2023/03/02 03:57:48;;;;;;;13.43;5.90;;;;;;;2.08;59.29;100231.69;4471366;31;20092;-85
2023/03/02 04:00:15;;;;;;;12.27;6.53;;;;;;;1.98;59.29;100237.59;4485340;31;20135;-86
2023/03/02 04:02:41;;;;;;;14.40;6.30;;;;;;;1.91;59.28;100235.81;4476523;31;20164;-85
2023/03/02 04:05:07;;;;;;;14.90;5.95;;;;;;;2.03;59.29;100233.37;4485852;31;20145;-87
2023/03/02 04:07:33;;;;;;;16.17;5.68;;;;;;;2.07;59.30;100236.81;4485993;31;20095;-86
2023/03/02 04:10:02;;;;;;;13.27;5.47;;;;;;;1.98;59.29;100247.88;4479589;32;20080;-85
2023/03/02 04:12:28;;;;;;;13.02;6.22;;;;;;;2.01;59.29;100242.78;4471425;31;20120;-86
2023/03/02 04:14:53;;;;;;;13.62;6.37;;;;;;;2.08;59.29;100244.53;4462011;32;20100;-84
2023/03/02 04:17:19;;;;;;;15.85;6.32;;;;;;;2.10;59.29;100242.84;4471741;32;20092;-86
2023/03/02 04:19:44;;;;;;;21.62;6.60;;;;;;;2.09;59.29;100236.00;4485307;31;20172;-86
2023/03/02 04:22:10;;;;;;;17.10;6.57;;;;;;;2.11;59.29;100242.00;4485142;31;20186;-86
2023/03/02 04:24:35;;;;;;;14.82;5.80;;;;;;;2.15;59.30;100245.50;4475729;31;20104;-87
2023/03/02 04:27:00;;;;;;;14.90;7.22;;;;;;;2.04;59.29;100242.78;4475267;31;20115;-86
2023/03/02 04:29:26;;;;;;;21.50;10.88;;;;;;;1.90;59.28;100234.09;4478625;31;20934;-87
2023/03/02 04:31:51;;;;;;;23.25;11.77;;;;;;;1.96;59.28;100236.72;4489634;31;20477;-87
2023/03/02 04:34:17;;;;;;;19.87;11.02;;;;;;;2.03;59.28;100238.50;4484575;32;20105;-86
2023/03/02 04:36:42;;;;;;;22.52;11.52;;;;;;;1.93;59.29;100229.00;4480901;31;20092;-88
2023/03/02 04:39:09;;;;;;;19.80;9.85;;;;;;;1.77;59.28;100235.66;4486160;31;20388;-86
2023/03/02 04:41:34;;;;;;;19.67;9.25;;;;;;;2.02;59.29;100234.22;4467759;31;20170;-86
2023/03/02 04:44:00;;;;;;;21.83;9.98;;;;;;;1.93;59.29;100233.28;4484462;32;20163;-86
2023/03/02 04:46:25;;;;;;;17.37;8.95;;;;;;;1.92;59.29;100234.97;4471386;31;20128;-86
2023/03/02 04:48:51;;;;;;;17.83;9.23;;;;;;;1.98;59.29;100227.34;4471652;32;20135;-86
2023/03/02 04:51:23;;;;;;;15.43;7.62;;;;;;;2.07;59.29;100224.84;4468825;31;20143;-87
2023/03/02 04:54:00;;;;;;;14.98;7.37;;;;;;;1.95;59.28;100221.31;4463209;31;20154;-87
2023/03/02 04:56:25;;;;;;;16.15;6.82;;;;;;;1.96;59.28;100223.91;4471693;31;20461;-87
2023/03/02 04:58:50;;;;;;;13.68;5.93;;;;;;;1.64;59.26;100222.66;4473778;31;20139;-88
2023/03/02 05:01:16;;;;;;;13.80;5.97;;;;;;;1.75;59.27;100227.09;4460857;31;20493;-87
2023/03/02 05:03:42;;;;;;;13.85;5.75;;;;;;;1.71;59.27;100242.44;4487021;31;20123;-86
2023/03/02 05:06:07;;;;;;;13.20;6.07;;;;;;;1.81;59.28;100236.56;4486811;31;20088;-86
2023/03/02 05:08:33;;;;;;;13.88;5.95;;;;;;;1.67;59.27;100235.56;4484705;32;20127;-86
2023/03/02 05:10:59;;;;;;;14.15;6.22;;;;;;;1.62;59.26;100232.06;4470789;32;20140;-87
2023/03/02 05:13:25;;;;;;;13.62;5.95;;;;;;;1.53;59.25;100233.69;4471518;32;20395;-84
2023/03/02 05:15:51;;;;;;;12.52;5.32;;;;;;;1.36;59.25;100231.72;4484637;32;20110;-87
2023/03/02 05:18:17;;;;;;;13.73;6.35;;;;;;;1.76;59.27;100228.81;4484664;32;20080;-86
2023/03/02 05:20:42;;;;;;;14.02;5.82;;;;;;;1.67;59.27;100236.41;4471160;32;20137;-88
2023/03/02 05:23:09;;;;;;;13.82;6.18;;;;;;;1.58;59.26;100235.44;4471702;32;20114;-87
2023/03/02 05:25:35;;;;;;;11.65;5.22;;;;;;;1.52;59.26;100231.94;4484376;31;20088;-86
2023/03/02 05:28:00;;;;;;;12.20;4.82;;;;;;;1.63;59.26;100233.78;4484569;32;20108;-86
2023/03/02 05:30:26;;;;;;;13.52;5.82;;;;;;;1.71;59.27;100234.75;4495104;31;20129;-87
2023/03/02 05:32:51;;;;;;;11.95;6.07;;;;;;;1.53;59.26;100238.81;4486577;31;20103;-85
2023/03/02 05:35:17;;;;;;;12.90;5.47;;;;;;;1.35;59.25;100238.56;4486332;31;20103;-92
2023/03/02 05:37:43;;;;;;;13.15;5.25;;;;;;;1.62;59.26;100235.47;4469109;32;20088;-93
2023/03/02 05:40:14;;;;;;;11.55;6.55;;;;;;;1.43;59.26;100241.25;4467295;31;20069;-93
2023/03/02 05:42:40;;;;;;;13.40;5.75;;;;;;;1.57;59.26;100244.84;4466065;31;20761;-93
2023/03/02 05:45:06;;;;;;;23.27;7.72;;;;;;;1.61;59.26;100248.28;4474616;31;20761;-94
2023/03/02 05:47:31;;;;;;;26.12;8.00;;;;;;;1.80;59.28;100245.97;4474058;31;20131;-93
2023/03/02 05:49:58;;;;;;;24.42;10.30;;;;;;;1.63;59.26;100244.03;4461641;32;20126;-96
2023/03/02 05:52:23;;;;;;;21.77;9.15;;;;;;;1.89;59.28;100245.19;4467139;31;20472;-93
2023/03/02 05:54:49;;;;;;;20.23;8.77;;;;;;;1.71;59.27;100248.44;4463769;32;20096;-92
2023/03/02 05:57:14;;;;;;;18.12;7.65;;;;;;;1.90;59.28;100249.50;4468968;32;20422;-92
2023/03/02 05:59:40;;;;;;;19.60;7.37;;;;;;;2.11;59.29;100249.72;4472277;32;20108;-94
2023/03/02 06:02:05;;;;;;;20.17;7.18;;;;;;;2.28;59.30;100249.03;4474616;32;20109;-92
2023/03/02 06:04:31;;;;;;;15.60;6.62;;;;;;;2.35;59.30;100253.34;4461514;32;20151;-94
2023/03/02 06:06:56;;;;;;;13.35;6.93;;;;;;;2.37;59.31;100249.12;4462130;32;20145;-92
2023/03/02 06:09:22;;;;;;;15.13;6.43;;;;;;;2.57;59.32;100249.28;4471222;32;20142;-95
2023/03/02 06:11:47;;;;;;;15.00;5.97;;;;;;;2.55;59.32;100249.25;4461279;32;20134;-94
2023/03/02 06:14:13;;;;;;;15.27;6.07;;;;;;;2.61;59.32;100244.19;4471580;32;20123;-93
2023/03/02 06:16:38;;;;;;;12.30;5.45;;;;;;;2.75;59.33;100246.84;4466050;32;20448;-92
2023/03/02 06:19:04;;;;;;;17.95;6.53;;;;;;;3.00;59.34;100250.47;4462273;32;20108;-93
2023/03/02 06:21:29;;;;;;;16.83;6.28;;;;;;;3.13;59.35;100241.97;4465436;32;20164;-95
2023/03/02 06:23:55;;;;;;;10.73;5.40;;;;;;;3.23;59.35;100248.88;4473470;32;20158;-93
2023/03/02 06:26:20;;;;;;;11.23;5.45;;;;;;;3.22;59.36;100249.75;4468000;32;20084;-94
2023/03/02 06:28:46;;;;;;;12.93;6.18;;;;;;;3.36;59.36;100257.53;4485964;31;20108;-93
2023/03/02 06:31:11;;;;;;;12.37;6.07;;;;;;;3.39;59.37;100254.97;4474155;32;20126;-94
2023/03/02 06:33:37;;;;;;;11.23;5.32;;;;;;;3.44;59.37;100265.28;4464006;31;20375;-93
2023/03/02 06:36:02;;;;;;;10.18;5.18;;;;;;;3.64;59.38;100268.81;4473435;32;20190;-93
2023/03/02 06:38:28;;;;;;;13.68;5.45;;;;;;;3.57;59.38;100267.94;4473442;31;20116;-93
2023/03/02 06:40:53;;;;;;;9.85;5.12;;;;;;;3.68;59.38;100267.97;4460306;32;20429;-94
2023/03/02 06:43:18;;;;;;;12.48;5.65;;;;;;;3.95;59.40;100268.06;4472919;31;20182;-92
2023/03/02 06:45:45;;;;;;;15.15;5.50;;;;;;;4.07;59.41;100271.56;4468064;32;20163;-93
2023/03/02 06:48:10;;;;;;;26.10;9.82;;;;;;;4.24;59.42;100275.88;4473460;31;20108;-94
2023/03/02 06:50:37;;;;;;;32.78;12.15;;;;;;;4.35;59.43;100273.31;4468630;32;20111;-94
2023/03/02 06:53:03;;;;;;;25.85;10.30;;;;;;;4.54;59.43;100269.91;4472846;31;20092;-93
2023/03/02 06:55:28;;;;;;;30.62;11.77;;;;;;;4.69;59.44;100269.03;4467624;32;20112;-93
2023/03/02 06:57:53;;;;;;;22.15;8.77;;;;;;;4.87;59.46;100273.34;4470711;31;20105;-93
2023/03/02 07:00:26;;;;;;;23.73;7.95;;;;;;;5.02;59.46;100270.75;4462075;32;20124;-92
2023/03/02 07:02:55;;;;;;;16.87;7.37;;;;;;;5.33;59.48;100276.72;4481531;31;20492;-93
2023/03/02 07:05:22;;;;;;;18.15;7.00;;;;;;;5.53;59.49;100264.63;4472941;32;20089;-94
2023/03/02 07:07:48;;;;;;;15.00;7.07;;;;;;;5.66;59.49;100256.81;4460224;32;20092;-94
2023/03/02 07:10:13;;;;;;;12.20;5.30;;;;;;;5.82;59.50;100261.06;4479047;32;20167;-93
2023/03/02 07:12:39;;;;;;;16.48;6.30;;;;;;;6.05;59.51;100258.41;4458994;32;20405;-93
2023/03/02 07:15:09;;;;;;;13.60;6.25;;;;;;;6.26;59.53;100254.81;4465611;32;20100;-94
2023/03/02 07:17:35;;;;;;;;;;;;;;;6.35;59.54;100257.34;4460343;32;20105;-94
2023/03/02 07:20:00;;;;;;;14.80;6.07;;;;;;;6.61;59.55;100254.56;4472530;32;19987;-94
2023/03/02 07:22:26;;;;;;;12.37;5.72;;;;;;;7.00;59.57;100253.38;4461713;32;20113;-92
2023/03/02 07:24:51;;;;;;;21.62;6.20;;;;;;;7.06;59.57;100248.97;4487663;31;20135;-93
2023/03/02 07:27:17;;;;;;;13.80;6.28;;;;;;;7.19;59.59;100256.66;4461393;32;20545;-93
2023/03/02 07:29:42;;;;;;;14.50;6.40;;;;;;;7.45;59.59;100248.59;4459375;32;20140;-93
2023/03/02 07:32:07;;;;;;;10.85;5.22;;;;;;;7.62;59.61;100255.31;4470128;32;20092;-93
2023/03/02 07:34:33;;;;;;;15.88;5.62;;;;;;;7.68;59.61;100257.81;4472081;32;20119;-93
2023/03/02 07:36:58;;;;;;;8.80;5.32;;;;;;;7.93;59.62;100248.00;4471151;32;20096;-93
2023/03/02 07:39:24;;;;;;;11.93;4.75;;;;;;;8.04;59.62;100250.41;4458514;32;20406;-94
2023/03/02 07:41:49;;;;;;;11.38;5.20;;;;;;;8.09;59.63;100243.47;4458922;32;20437;-93
2023/03/02 07:44:15;;;;;;;10.10;4.68;;;;;;;8.13;59.63;100246.87;4458738;32;20202;-93
2023/03/02 07:46:40;;;;;;;26.33;11.23;;;;;;;8.30;59.65;100243.16;4474414;31;20461;-93
2023/03/02 07:49:05;;;;;;;24.42;7.70;;;;;;;8.45;59.65;100242.09;4473973;31;20159;-93
2023/03/02 07:51:31;;;;;;;13.20;6.68;;;;;;;8.57;59.66;100241.91;4460888;32;20103;-93
2023/03/02 07:53:56;;;;;;;8.85;6.12;;;;;;;8.53;59.66;100242.84;4458689;32;20186;-93
2023/03/02 07:56:22;;;;;;;13.62;5.87;;;;;;;8.69;59.66;100246.03;4460339;31;20146;-94
2023/03/02 07:58:47;;;;;;;11.63;5.72;;;;;;;8.87;59.67;100240.53;4466090;32;20104;-92
2023/03/02 08:01:12;;;;;;;9.60;4.68;;;;;;;9.00;59.68;100245.53;4468769;32;20490;-93
2023/03/02 08:03:38;;;;;;;9.07;4.75;;;;;;;8.97;59.69;100241.22;4458291;32;20124;-93
2023/03/02 08:06:08;;;;;;;8.95;4.55;;;;;;;8.95;59.67;100242.97;4468537;32;20093;-92
2023/03/02 08:08:34;;;;;;;9.20;4.45;;;;;;;9.18;59.69;100239.97;4464189;32;20104;-92
2023/03/02 08:11:10;;;;;;;11.05;4.93;;;;;;;9.19;59.70;100239.09;4471214;31;20148;-93
2023/03/02 08:13:35;;;;;;;10.32;5.10;;;;;;;9.24;59.69;100232.09;4471613;32;20088;-94
2023/03/02 08:16:05;;;;;;;9.75;4.37;;;;;;;9.45;59.70;100233.41;4471207;32;20168;-94
2023/03/02 08:18:31;;;;;;;9.52;4.57;;;;;;;9.53;59.71;100234.97;4471810;32;20130;-93
2023/03/02 08:20:56;;;;;;;7.00;3.30;;;;;;;9.43;59.71;100233.44;4460121;32;20132;-94
2023/03/02 08:23:22;;;;;;;9.38;4.22;;;;;;;9.58;59.72;100227.06;4478635;32;20114;-93
2023/03/02 08:25:48;;;;;;;7.43;3.53;;;;;;;9.45;59.70;100230.78;4472360;32;20397;-93
2023/03/02 08:28:13;;;;;;;7.95;3.58;;;;;;;9.49;59.72;100232.47;4471241;31;20159;-92
2023/03/02 08:30:38;;;;;;;7.28;3.60;;;;;;;9.32;59.70;100227.59;4457924;32;20921;-94
2023/03/02 08:33:04;;;;;;;8.02;3.95;;;;;;;9.51;59.71;100220.31;4458275;32;20136;-92
2023/03/02 08:35:29;;;;;;;10.30;4.07;;;;;;;9.55;59.71;100224.53;4459852;32;20144;-93
2023/03/02 08:37:55;;;;;;;8.35;3.45;;;;;;;9.64;59.71;100218.28;4471244;32;20458;-93
2023/03/02 08:40:20;;;;;;;9.55;3.60;;;;;;;9.83;59.73;100220.47;4481347;32;20489;-93
2023/03/02 08:42:46;;;;;;;9.55;3.37;;;;;;;9.78;59.72;100217.13;4470672;32;20179;-93
2023/03/02 08:45:11;;;;;;;12.10;3.85;;;;;;;9.88;59.73;100217.78;4470666;32;20148;-94
2023/03/02 08:47:36;;;;;;;9.18;4.25;;;;;;;10.08;59.74;100215.59;4470913;32;20124;-93
2023/03/02 08:50:03;;;;;;;9.35;4.18;;;;;;;10.01;59.73;100216.63;4468522;32;20096;-94
2023/03/02 08:52:28;;;;;;;11.63;4.43;;;;;;;10.23;59.75;100219.63;4463687;32;20093;-93
2023/03/02 08:54:54;;;;;;;13.10;4.28;;;;;;;10.16;59.74;100207.59;4472788;31;20752;-94
2023/03/02 08:57:19;;;;;;;11.12;4.53;;;;;;;10.31;59.75;100206.44;4457685;32;20105;-93
2023/03/02 08:59:45;;;;;;;9.05;4.22;;;;;;;10.36;59.76;100205.44;4468660;32;20222;-93
2023/03/02 09:02:11;;;;;;;12.20;4.70;;;;;;;10.34;59.76;100207.22;4477410;32;20161;-93
2023/03/02 09:04:36;;;;;;;9.48;4.57;;;;;;;10.54;59.76;100205.88;4457835;32;20735;-93
2023/03/02 09:07:02;;;;;;;7.82;4.65;;;;;;;10.51;59.77;100208.56;4457539;32;20135;-93
2023/03/02 09:09:27;;;;;;;11.15;5.10;;;;;;;10.63;59.78;100208.25;4461173;32;20144;-93
2023/03/02 09:11:52;;;;;;;13.85;4.78;;;;;;;10.70;59.78;100207.22;4466795;32;20156;-93
2023/03/02 09:14:18;;;;;;;11.35;4.97;;;;;;;10.90;59.79;100211.94;4470315;32;20103;-93
2023/03/02 09:16:44;;;;;;;10.07;5.35;;;;;;;10.92;59.79;100211.00;4472858;32;20104;-93
2023/03/02 09:19:11;;;;;;;8.63;4.47;;;;;;;10.95;59.79;100204.84;4462777;32;20088;-93
2023/03/02 09:21:36;;;;;;;11.23;4.95;;;;;;;11.03;59.79;100203.72;4466752;32;20096;-93
2023/03/02 09:24:02;;;;;;;10.20;5.10;;;;;;;11.08;59.81;100195.78;4460343;32;20152;-94
2023/03/02 09:26:27;;;;;;;8.60;4.93;;;;;;;11.17;59.81;100197.31;4472655;32;20415;-93
2023/03/02 09:28:54;;;;;;;11.27;5.18;;;;;;;11.10;59.80;100196.59;4459834;32;20108;-93
2023/03/02 09:31:19;;;;;;;10.90;5.28;;;;;;;11.31;59.82;100188.19;4460496;32;20155;-93
2023/03/02 09:33:44;;;;;;;16.23;5.70;;;;;;;11.29;59.80;100195.22;4459890;32;20455;-93
2023/03/02 09:36:11;;;;;;;10.48;5.72;;;;;;;11.40;59.82;100191.47;4471780;32;20445;-93
2023/03/02 09:38:36;;;;;;;15.48;7.37;;;;;;;11.36;59.81;100190.69;4470443;32;20092;-93
2023/03/02 09:41:20;;;;;;;13.52;6.03;;;;;;;11.47;59.83;100196.44;4461373;32;20159;-93
2023/03/02 09:44:01;;;;;;;12.10;5.68;;;;;;;11.45;59.83;100186.97;4494792;31;20114;-93
2023/03/02 09:46:32;;;;;;;14.95;5.40;;;;;;;11.33;59.82;100190.75;4490629;31;20127;-94
2023/03/02 09:49:21;;;;;;;17.67;5.80;;;;;;;11.54;59.83;100184.94;4488386;31;20113;-93
2023/03/02 09:51:54;;;;;;;12.25;6.47;;;;;;;11.50;59.82;100193.75;4473749;32;20106;-91
2023/03/02 09:54:20;;;;;;;10.15;5.62;;;;;;;11.45;59.83;100194.78;4485973;31;20130;-94
2023/03/02 09:56:47;;;;;;;12.13;5.68;;;;;;;11.76;59.84;100186.91;4469555;32;20100;-93
2023/03/02 09:59:46;;;;;;;12.50;6.75;;;;;;;11.90;59.84;100187.41;4467594;31;20110;-94
2023/03/02 10:02:11;;;;;;;14.20;7.18;;;;;;;11.90;59.86;100183.03;4478308;31;20099;-93
2023/03/02 10:04:43;;;;;;;11.93;5.32;;;;;;;11.90;59.86;100179.56;4487804;31;20389;-93
2023/03/02 10:07:13;;;;;;;14.38;5.80;;;;;;;11.99;59.86;100177.53;4459922;32;20175;-93
2023/03/02 10:09:38;;;;;;;13.20;5.80;;;;;;;11.83;59.85;100175.44;4474350;32;20100;-94
2023/03/02 10:12:07;;;;;;;12.80;6.55;;;;;;;12.04;59.87;100174.78;4476011;32;20092;-94
2023/03/02 10:14:41;;;;;;;16.23;5.68;;;;;;;12.33;59.87;100175.63;4473398;32;20120;-93
2023/03/02 10:17:21;;;;;;;14.35;7.12;;;;;;;12.29;59.87;100169.63;4468341;31;20453;-95
2023/03/02 10:19:51;;;;;;;12.40;5.70;;;;;;;12.42;59.88;100167.47;4487577;31;20084;-92
2023/03/02 10:22:22;;;;;;;14.10;7.47;;;;;;;12.67;59.89;100173.59;4470010;31;20088;-94
2023/03/02 10:25:04;;;;;;;11.40;6.20;;;;;;;12.53;59.88;100176.66;4465277;31;20109;-94
2023/03/02 10:27:30;;;;;;;13.95;5.43;;;;;;;12.59;59.89;100170.41;4474922;32;20113;-94
2023/03/02 10:30:26;;;;;;;14.00;5.70;;;;;;;12.91;59.90;100159.69;4495179;31;20650;-93
2023/03/02 10:32:52;;;;;;;13.82;5.35;;;;;;;13.20;59.93;100161.28;4477899;31;20099;-94
2023/03/02 10:35:19;;;;;;;9.95;5.40;;;;;;;13.28;59.93;100150.56;4472243;31;20453;-95
2023/03/02 10:37:45;;;;;;;13.35;5.78;;;;;;;13.33;59.93;100147.78;4467038;32;20143;-93
2023/03/02 10:40:41;;;;;;;17.23;5.82;;;;;;;13.36;59.93;100150.28;4469419;32;20092;-94
2023/03/02 10:43:13;;;;;;;11.02;5.78;;;;;;;13.59;59.94;100152.91;4476421;31;20096;-93
2023/03/02 10:45:38;;;;;;;14.73;5.87;;;;;;;13.56;59.95;100145.16;4476263;32;20499;-94
2023/03/02 10:48:06;;;;;;;10.60;5.40;;;;;;;13.45;59.94;100139.47;4468272;31;20144;-93
2023/03/02 10:50:32;;;;;;;17.60;6.18;;;;;;;13.60;59.94;100136.28;4461765;31;20100;-94
2023/03/02 10:52:58;;;;;;;12.30;4.37;;;;;;;13.89;59.96;100132.53;4470405;31;20092;-94
2023/03/02 10:55:23;;;;;;;10.18;4.90;;;;;;;13.86;59.95;100130.03;4481120;32;20105;-93
2023/03/02 10:58:18;;;;;;;9.40;5.20;;;;;;;13.92;59.96;100124.56;4473814;31;20104;-95
2023/03/02 11:00:54;;;;;;;13.10;5.12;;;;;;;14.11;59.97;100127.31;4472820;32;20149;-93
2023/03/02 11:03:20;;;;;;;7.95;4.75;;;;;;;14.08;59.97;100120.44;4475724;31;20118;-95
2023/03/02 11:05:46;;;;;;;10.43;5.20;;;;;;;14.34;59.99;100127.22;4466797;31;20115;-94
2023/03/02 11:08:22;;;;;;;11.80;4.80;;;;;;;14.24;59.97;100114.56;4460107;32;20151;-94
2023/03/02 11:11:00;;;;;;;9.15;4.53;;;;;;;14.25;59.98;100119.75;4472468;31;20115;-93
2023/03/02 11:13:30;;;;;;;10.45;5.18;;;;;;;14.31;59.98;100122.09;4477747;31;20100;-94
2023/03/02 11:16:00;;;;;;;8.35;4.93;;;;;;;14.27;59.99;100110.06;4487929;32;20108;-93
2023/03/02 11:18:29;;;;;;;9.63;4.95;;;;;;;14.17;59.99;100110.47;4475113;32;20129;-94
2023/03/02 11:21:07;;;;;;;8.27;4.75;;;;;;;14.37;59.98;100116.59;4485210;31;20457;-94
2023/03/02 11:23:57;;;;;;;8.90;4.93;;;;;;;14.45;59.99;100100.63;4460033;31;20105;-93
2023/03/02 11:26:22;;;;;;;12.50;5.67;;;;;;;14.48;60.00;100102.25;4471798;32;20142;-93